Time;durP1;ratioP1;P1;durP2;ratioP2;P2;SDS_P1;SDS_P2;PMS_P1;PMS_P2;Temp;Humidity;BMP_temperature;BMP_pressure;BME280_temperature;BME280_humidity;BME280_pressure;Samples;Min_cycle;Max_cycle;Signal;HPM_P1;HPM_P2
2021/12/10 00:00:51;;;;;;;13.13;4.10;;;6.80;99.90;;;;;;5006374;28;20215;-26
2021/12/10 00:03:31;;;;;;;11.03;3.90;;;6.80;99.90;;;;;;5007976;28;20212;-26
2021/12/10 00:06:07;;;;;;;7.63;3.93;;;6.80;99.90;;;;;;5020290;28;20551;-26
2021/12/10 00:08:36;;;;;;;11.03;3.67;;;6.80;99.90;;;;;;5024015;28;20197;-26
2021/12/10 00:11:10;;;;;;;9.67;3.60;;;6.80;99.90;;;;;;5008409;28;20210;-26
2021/12/10 00:13:44;;;;;;;9.13;3.17;;;6.80;99.90;;;;;;5007082;28;20265;-26
2021/12/10 00:16:14;;;;;;;10.07;3.90;;;6.70;99.90;;;;;;5020812;28;20201;-25
2021/12/10 00:18:49;;;;;;;10.33;3.50;;;6.70;99.90;;;;;;5025423;28;20272;-26
2021/12/10 00:21:17;;;;;;;11.03;3.80;;;6.70;99.90;;;;;;5007872;28;20723;-26
2021/12/10 00:23:49;;;;;;;12.90;3.17;;;6.70;99.90;;;;;;5007418;28;20218;-26
2021/12/10 00:26:23;;;;;;;11.67;3.70;;;6.70;99.90;;;;;;5026188;28;20205;-26
2021/12/10 00:28:51;;;;;;;8.07;3.07;;;6.70;99.90;;;;;;5015019;28;20576;-26
2021/12/10 00:31:42;;;;;;;8.67;3.53;;;6.70;99.90;;;;;;5021615;28;20201;-26
2021/12/10 00:34:31;;;;;;;9.33;3.20;;;6.70;99.90;;;;;;5020257;28;20206;-26
2021/12/10 00:37:02;;;;;;;9.47;3.67;;;6.60;99.90;;;;;;5025141;28;20207;-26
2021/12/10 00:39:39;;;;;;;9.10;3.67;;;6.60;99.90;;;;;;5026355;28;20295;-26
2021/12/10 00:42:10;;;;;;;6.13;3.10;;;6.60;99.90;;;;;;5007664;28;20243;-26
2021/12/10 00:44:37;;;;;;;8.03;3.17;;;6.60;99.90;;;;;;5012227;28;20201;-27
2021/12/10 00:47:05;;;;;;;11.23;3.17;;;6.60;99.90;;;;;;5011379;28;20212;-26
2021/12/10 00:49:35;;;;;;;10.57;4.20;;;6.60;99.90;;;;;;5026092;28;20234;-26
2021/12/10 00:52:05;;;;;;;4.73;2.93;;;6.60;99.90;;;;;;5030274;28;20225;-26
2021/12/10 00:54:36;;;;;;;7.33;3.27;;;6.60;99.90;;;;;;5030029;28;20336;-26
2021/12/10 00:57:05;;;;;;;7.40;3.00;;;6.60;99.90;;;;;;5031017;28;20205;-26
2021/12/10 00:59:33;;;;;;;7.20;3.20;;;6.50;99.90;;;;;;5019942;28;20240;-26
2021/12/10 01:02:00;;;;;;;8.30;3.33;;;6.50;99.90;;;;;;5011579;28;20213;-26
2021/12/10 01:04:35;;;;;;;7.17;3.00;;;6.50;99.90;;;;;;5013899;28;20242;-26
2021/12/10 01:07:06;;;;;;;7.43;3.00;;;6.50;99.90;;;;;;5030775;28;20606;-26
2021/12/10 01:09:37;;;;;;;10.10;3.60;;;6.50;99.90;;;;;;5025217;28;20271;-26
2021/12/10 01:12:11;;;;;;;8.00;3.20;;;6.50;99.90;;;;;;5009808;28;20683;-25
2021/12/10 01:26:09;;;;;;;9.27;2.70;;;6.50;99.90;;;;;;5010693;28;20317;-25
2021/12/10 01:28:41;;;;;;;6.97;2.67;;;6.50;99.90;;;;;;5009309;28;20641;-25
2021/12/10 01:31:09;;;;;;;7.90;2.60;;;6.50;99.90;;;;;;5013787;28;20275;-25
2021/12/10 01:33:37;;;;;;;5.60;2.37;;;6.50;99.90;;;;;;5010032;28;20205;-25
2021/12/10 01:36:07;;;;;;;7.67;2.63;;;6.50;99.90;;;;;;5020601;28;20205;-25
2021/12/10 01:38:41;;;;;;;7.63;3.00;;;6.50;99.90;;;;;;5028448;28;20223;-25
2021/12/10 01:41:13;;;;;;;7.23;2.50;;;6.60;99.90;;;;;;5028304;28;20366;-25
2021/12/10 01:43:47;;;;;;;4.47;2.50;;;6.60;99.90;;;;;;5029070;28;20694;-25
2021/12/10 01:46:24;;;;;;;6.87;2.07;;;6.60;99.90;;;;;;5013866;28;20229;-25
2021/12/10 01:48:58;;;;;;;7.80;2.53;;;6.60;99.90;;;;;;5010090;28;20197;-25
2021/12/10 01:51:30;;;;;;;6.33;2.20;;;6.60;99.90;;;;;;5010474;28;20229;-25
2021/12/10 01:54:17;;;;;;;5.67;1.83;;;6.60;99.90;;;;;;5010432;28;20211;-25
2021/12/10 01:56:46;;;;;;;7.20;1.90;;;6.70;99.90;;;;;;5029904;28;20200;-25
2021/12/10 01:59:17;;;;;;;3.23;1.70;;;6.70;99.90;;;;;;5027607;28;20245;-25
2021/12/10 02:01:54;;;;;;;7.80;2.00;;;6.80;99.90;;;;;;5016852;28;20307;-26
2021/12/10 02:04:27;;;;;;;4.50;1.83;;;6.80;99.90;;;;;;5029896;28;20671;-26
2021/12/10 02:06:55;;;;;;;4.87;1.80;;;6.80;99.90;;;;;;5018343;28;20284;-26
2021/12/10 02:09:22;;;;;;;4.10;1.37;;;6.80;99.90;;;;;;5030015;28;20675;-26
2021/12/10 02:11:52;;;;;;;7.13;1.80;;;6.80;99.90;;;;;;5017938;28;20573;-26
2021/12/10 02:14:23;;;;;;;7.13;1.77;;;6.80;99.90;;;;;;5029331;28;20204;-26
2021/12/10 02:16:59;;;;;;;5.47;1.70;;;6.90;99.90;;;;;;5029611;28;20201;-26
2021/12/10 02:19:29;;;;;;;3.93;1.47;;;6.90;99.90;;;;;;5029476;28;20679;-26
2021/12/10 02:21:59;;;;;;;5.47;1.43;;;6.90;99.90;;;;;;5024686;28;20695;-26
2021/12/10 02:24:26;;;;;;;4.33;1.60;;;6.90;99.90;;;;;;5022658;28;20212;-26
2021/12/10 02:27:01;;;;;;;5.27;1.30;;;6.90;99.90;;;;;;5019604;28;20217;-26
2021/12/10 02:29:32;;;;;;;6.17;1.60;;;7.00;99.90;;;;;;5028106;28;20205;-26
2021/12/10 02:32:00;;;;;;;4.60;1.40;;;7.00;99.90;;;;;;5010702;28;20299;-26
2021/12/10 02:34:28;;;;;;;3.87;1.40;;;7.00;99.90;;;;;;5015792;28;20610;-26
2021/12/10 02:36:59;;;;;;;6.27;1.67;;;7.00;99.90;;;;;;5026509;28;20301;-26
2021/12/10 02:39:27;;;;;;;6.23;1.37;;;7.10;99.90;;;;;;5028830;28;20316;-26
2021/12/10 02:41:57;;;;;;;5.20;1.43;;;7.00;99.90;;;;;;5029275;28;20271;-26
2021/12/10 02:44:29;;;;;;;7.20;1.50;;;7.10;99.90;;;;;;5020495;28;20209;-26
2021/12/10 02:46:57;;;;;;;2.93;1.10;;;7.10;99.90;;;;;;5028097;28;20200;-26
2021/12/10 02:49:28;;;;;;;4.07;0.97;;;7.10;99.90;;;;;;5029074;28;20270;-26
2021/12/10 02:51:56;;;;;;;3.93;1.10;;;7.10;99.90;;;;;;5027702;28;20232;-26
2021/12/10 02:54:33;;;;;;;7.17;1.50;;;7.10;99.90;;;;;;5027100;28;20212;-26
2021/12/10 02:57:13;;;;;;;6.33;1.10;;;7.10;99.90;;;;;;5021095;28;20671;-26
2021/12/10 02:59:43;;;;;;;4.50;1.00;;;7.20;99.90;;;;;;5026564;28;20335;-26
2021/12/10 03:02:14;;;;;;;4.57;1.20;;;7.20;99.90;;;;;;5021578;28;20246;-26
2021/12/10 03:04:45;;;;;;;4.67;1.10;;;7.20;99.90;;;;;;5019586;28;20297;-26
2021/12/10 03:07:18;;;;;;;2.93;1.00;;;7.20;99.90;;;;;;5007260;28;20198;-26
2021/12/10 03:09:49;;;;;;;4.83;1.00;;;7.20;99.90;;;;;;5008915;28;20585;-26
2021/12/10 03:12:21;;;;;;;5.40;0.83;;;7.20;99.90;;;;;;5008909;28;20217;-26
2021/12/10 03:14:52;;;;;;;4.57;1.07;;;7.30;99.90;;;;;;5023374;28;20319;-26
2021/12/10 03:17:24;;;;;;;2.87;0.83;;;7.20;99.90;;;;;;5027344;28;20200;-26
2021/12/10 03:19:52;;;;;;;6.43;1.40;;;7.30;99.90;;;;;;5009495;28;20218;-26
2021/12/10 03:22:20;;;;;;;4.53;1.00;;;7.30;99.90;;;;;;5007652;28;20201;-26
2021/12/10 03:24:51;;;;;;;3.30;1.00;;;7.30;99.90;;;;;;5041551;28;20345;-26
2021/12/10 03:27:22;;;;;;;5.43;1.10;;;7.30;99.90;;;;;;5017063;28;20211;-26
2021/12/10 03:29:50;;;;;;;5.23;1.00;;;7.30;99.90;;;;;;5028373;28;20316;-26
2021/12/10 03:32:28;;;;;;;4.40;1.10;;;7.30;99.90;;;;;;5028000;28;20196;-26
2021/12/10 03:34:58;;;;;;;1.33;0.50;;;7.30;99.90;;;;;;5027058;28;20209;-26
2021/12/10 03:37:26;;;;;;;4.43;0.80;;;7.30;99.90;;;;;;5025436;28;20675;-26
2021/12/10 03:39:54;;;;;;;3.23;0.83;;;7.30;99.90;;;;;;5027664;28;20577;-26
2021/12/10 03:42:25;;;;;;;3.97;1.10;;;7.30;99.90;;;;;;5027857;28;20227;-26
2021/12/10 03:44:52;;;;;;;2.30;0.90;;;7.30;99.90;;;;;;5028326;28;20203;-26
2021/12/10 03:47:19;;;;;;;2.80;0.80;;;7.30;99.90;;;;;;5025742;28;20263;-26
2021/12/10 03:49:49;;;;;;;4.07;1.13;;;7.30;99.90;;;;;;5027836;28;20581;-26
2021/12/10 03:52:17;;;;;;;3.47;0.83;;;7.30;99.90;;;;;;5018249;28;20205;-26
2021/12/10 03:54:44;;;;;;;4.30;0.90;;;7.30;99.90;;;;;;5026437;28;20209;-26
2021/12/10 03:57:11;;;;;;;3.67;0.90;;;7.30;99.90;;;;;;5025676;28;20487;-26
2021/12/10 03:59:41;;;;;;;1.87;0.70;;;7.30;99.90;;;;;;5015862;28;20660;-26
2021/12/10 04:02:12;;;;;;;2.23;0.73;;;7.30;99.90;;;;;;5007650;28;20233;-26
2021/12/10 04:04:46;;;;;;;3.40;0.83;;;7.30;99.90;;;;;;5007967;28;20206;-26
2021/12/10 04:07:20;;;;;;;2.63;0.83;;;7.30;99.90;;;;;;5010784;28;20204;-26
2021/12/10 04:09:54;;;;;;;2.57;0.67;;;7.30;99.90;;;;;;5025744;28;20678;-26
2021/12/10 04:12:22;;;;;;;1.20;0.67;;;7.30;99.90;;;;;;5026052;28;20748;-26
2021/12/10 04:14:52;;;;;;;2.37;0.60;;;7.20;99.90;;;;;;5027660;28;20286;-26
2021/12/10 04:17:22;;;;;;;3.40;0.60;;;7.30;99.90;;;;;;5025479;28;20267;-26
2021/12/10 04:19:50;;;;;;;1.30;0.60;;;7.20;99.90;;;;;;5031264;28;20232;-26
2021/12/10 04:22:20;;;;;;;2.63;0.63;;;7.20;99.90;;;;;;5029316;28;20197;-26
2021/12/10 04:24:48;;;;;;;2.63;0.80;;;7.20;99.90;;;;;;5031584;28;20215;-26
2021/12/10 04:27:17;;;;;;;2.33;0.70;;;7.30;99.90;;;;;;5018688;28;20215;-26
2021/12/10 04:29:46;;;;;;;0.77;0.40;;;7.20;99.90;;;;;;5030127;28;20212;-27
2021/12/10 04:32:14;;;;;;;2.97;0.60;;;7.20;99.90;;;;;;5031067;28;20586;-26
2021/12/10 04:34:41;;;;;;;2.47;0.67;;;7.20;99.90;;;;;;5031409;28;20255;-26
2021/12/10 04:37:10;;;;;;;3.70;0.70;;;7.20;99.90;;;;;;5025146;28;20208;-26
2021/12/10 04:39:45;;;;;;;3.23;0.80;;;7.10;99.90;;;;;;5030585;28;20671;-26
2021/12/10 04:42:17;;;;;;;1.63;0.50;;;7.10;99.90;;;;;;5030951;28;20201;-26
2021/12/10 04:44:51;;;;;;;2.00;0.60;;;7.10;99.90;;;;;;5013459;28;20275;-26
2021/12/10 04:47:18;;;;;;;3.80;0.77;;;7.10;99.90;;;;;;5011643;28;20193;-26
2021/12/10 04:49:45;;;;;;;1.07;0.50;;;7.10;99.90;;;;;;5019442;28;20223;-26
2021/12/10 04:52:12;;;;;;;3.53;0.87;;;7.10;99.90;;;;;;5029575;28;20267;-26
2021/12/10 04:54:40;;;;;;;2.83;0.70;;;7.10;99.90;;;;;;5031050;28;20637;-26
2021/12/10 04:57:08;;;;;;;2.90;0.63;;;7.10;99.90;;;;;;5030918;28;20209;-26
2021/12/10 04:59:36;;;;;;;2.07;0.73;;;7.10;99.90;;;;;;5028920;28;20200;-26
2021/12/10 05:02:08;;;;;;;1.10;0.47;;;7.10;99.90;;;;;;5018259;28;20229;-26
2021/12/10 05:04:37;;;;;;;3.00;1.00;;;7.00;99.90;;;;;;5025173;28;20690;-26
2021/12/10 05:07:05;;;;;;;3.70;0.90;;;7.00;99.90;;;;;;5009972;28;20226;-26
2021/12/10 05:09:33;;;;;;;3.30;0.60;;;7.00;99.90;;;;;;5014857;28;20201;-26
2021/12/10 05:12:01;;;;;;;2.37;0.53;;;7.00;99.90;;;;;;5030489;28;20643;-26
2021/12/10 05:14:30;;;;;;;3.90;0.80;;;7.00;99.90;;;;;;5030648;28;20205;-26
2021/12/10 05:17:03;;;;;;;2.03;0.70;;;7.00;99.90;;;;;;5027572;28;20704;-26
2021/12/10 05:19:31;;;;;;;2.43;0.60;;;7.00;99.90;;;;;;5024034;28;20224;-26
2021/12/10 05:22:03;;;;;;;1.37;0.50;;;7.00;99.90;;;;;;5009762;28;20201;-26
2021/12/10 05:24:30;;;;;;;2.13;0.60;;;7.00;99.90;;;;;;5010766;28;20304;-26
2021/12/10 05:26:59;;;;;;;1.30;0.53;;;7.00;99.90;;;;;;5010276;28;20209;-26
2021/12/10 05:29:27;;;;;;;3.17;0.63;;;7.00;99.90;;;;;;5010394;28;20236;-26
2021/12/10 05:31:58;;;;;;;2.27;0.73;;;7.00;99.90;;;;;;5014859;28;20264;-26
2021/12/10 05:34:26;;;;;;;2.73;0.83;;;7.00;99.90;;;;;;5021883;28;20298;-26
2021/12/10 05:36:57;;;;;;;1.93;0.50;;;6.90;99.90;;;;;;5009283;28;20715;-26
2021/12/10 05:39:25;;;;;;;2.93;0.63;;;6.90;99.90;;;;;;5026781;28;20303;-26
2021/12/10 05:41:53;;;;;;;2.00;0.43;;;7.00;99.90;;;;;;5028207;28;20243;-26
2021/12/10 05:44:22;;;;;;;0.80;0.60;;;6.90;99.90;;;;;;5029046;28;20679;-26
2021/12/10 05:46:50;;;;;;;1.07;0.60;;;6.90;99.90;;;;;;5028446;28;20728;-26
2021/12/10 05:49:17;;;;;;;1.97;0.57;;;6.90;99.90;;;;;;5030349;28;20283;-26
2021/12/10 05:51:47;;;;;;;1.97;0.70;;;6.90;99.90;;;;;;5023668;28;20753;-26
2021/12/10 05:54:14;;;;;;;2.00;0.60;;;6.80;99.90;;;;;;5028437;28;20619;-26
2021/12/10 05:56:44;;;;;;;1.53;0.70;;;6.80;99.90;;;;;;5029755;28;20404;-26
2021/12/10 05:59:14;;;;;;;1.47;0.60;;;6.90;99.90;;;;;;5017932;28;20498;-26
2021/12/10 06:01:41;;;;;;;3.03;0.53;;;6.80;99.90;;;;;;5020132;28;20717;-26
2021/12/10 06:04:09;;;;;;;3.60;0.50;;;6.80;99.90;;;;;;5021653;28;20205;-26
2021/12/10 06:06:36;;;;;;;3.63;0.50;;;6.80;99.90;;;;;;5023201;28;20216;-26
2021/12/10 06:09:08;;;;;;;1.93;0.40;;;6.80;99.90;;;;;;5018698;28;20300;-26
2021/12/10 06:11:36;;;;;;;2.43;0.60;;;6.80;99.90;;;;;;5016250;28;20707;-26
2021/12/10 06:14:04;;;;;;;2.33;0.80;;;6.80;99.90;;;;;;5019116;28;20222;-26
2021/12/10 06:16:31;;;;;;;1.70;0.77;;;6.80;99.90;;;;;;5014218;28;20679;-26
2021/12/10 06:18:59;;;;;;;3.43;0.80;;;6.70;99.90;;;;;;5016705;28;20208;-26
2021/12/10 06:21:26;;;;;;;1.20;0.57;;;6.80;99.90;;;;;;5015588;28;20283;-26
2021/12/10 06:23:56;;;;;;;1.10;0.50;;;6.70;99.90;;;;;;5025202;28;20217;-26
2021/12/10 06:26:24;;;;;;;1.37;0.50;;;6.70;99.90;;;;;;5022302;28;20701;-26
2021/12/10 06:28:54;;;;;;;2.23;0.63;;;6.80;99.90;;;;;;5014447;28;20208;-26
2021/12/10 06:31:23;;;;;;;1.20;0.60;;;6.70;99.90;;;;;;5013610;28;21593;-26
2021/12/10 06:33:51;;;;;;;0.80;0.50;;;6.70;99.90;;;;;;5019659;28;20277;-26
2021/12/10 06:36:20;;;;;;;2.10;0.70;;;6.80;99.90;;;;;;5023703;28;20232;-26
2021/12/10 06:38:48;;;;;;;0.97;0.50;;;6.70;99.90;;;;;;5028873;28;20208;-26
2021/12/10 06:41:16;;;;;;;1.30;0.60;;;6.70;99.90;;;;;;5025736;28;20216;-26
2021/12/10 06:43:47;;;;;;;1.50;0.60;;;6.70;99.90;;;;;;5019613;28;20619;-26
2021/12/10 06:46:15;;;;;;;1.27;0.43;;;6.70;99.90;;;;;;5026363;28;20208;-26
2021/12/10 06:48:42;;;;;;;0.70;0.50;;;6.70;99.90;;;;;;5028539;28;20209;-26
2021/12/10 06:51:15;;;;;;;1.70;0.70;;;6.70;99.90;;;;;;5024715;28;20299;-26
2021/12/10 06:53:44;;;;;;;1.90;0.63;;;6.70;99.90;;;;;;5020399;28;20312;-26
2021/12/10 06:56:13;;;;;;;1.63;0.50;;;6.70;99.90;;;;;;5011924;28;20204;-26
2021/12/10 06:58:41;;;;;;;1.03;0.53;;;6.70;99.90;;;;;;5009400;28;20216;-26
2021/12/10 07:01:22;;;;;;;0.60;0.57;;;6.70;99.90;;;;;;5027482;28;20762;-26
2021/12/10 07:03:51;;;;;;;0.53;0.40;;;6.70;99.90;;;;;;5013724;28;20746;-26
2021/12/10 07:06:20;;;;;;;1.57;0.63;;;6.70;99.90;;;;;;5026539;28;20221;-26
2021/12/10 07:08:50;;;;;;;0.90;0.60;;;6.70;99.90;;;;;;5023193;28;20197;-26
2021/12/10 07:11:20;;;;;;;1.20;0.57;;;6.70;99.90;;;;;;5012693;28;20264;-26
2021/12/10 07:13:50;;;;;;;0.77;0.60;;;6.70;99.90;;;;;;5008740;28;20222;-26
2021/12/10 07:16:21;;;;;;;2.20;0.50;;;6.70;99.90;;;;;;5008286;28;20206;-26
2021/12/10 07:18:49;;;;;;;0.63;0.40;;;6.70;99.90;;;;;;5008089;28;20247;-26
2021/12/10 07:21:17;;;;;;;0.87;0.63;;;6.70;99.90;;;;;;5020212;28;20697;-26
2021/12/10 07:23:44;;;;;;;1.17;0.70;;;6.70;99.90;;;;;;5012957;28;20223;-26
2021/12/10 07:26:13;;;;;;;1.77;0.63;;;6.60;99.90;;;;;;5024909;28;20200;-26
2021/12/10 07:28:40;;;;;;;1.37;0.73;;;6.60;99.90;;;;;;5015483;28;20257;-26
2021/12/10 07:31:12;;;;;;;2.17;0.80;;;6.60;99.90;;;;;;5010008;28;20226;-26
2021/12/10 07:33:42;;;;;;;0.90;0.60;;;6.60;99.90;;;;;;5011965;28;20220;-26
2021/12/10 07:36:15;;;;;;;0.77;0.60;;;6.60;99.90;;;;;;5007816;28;20224;-26
2021/12/10 07:38:46;;;;;;;0.73;0.60;;;6.60;99.90;;;;;;5012843;28;20198;-26
2021/12/10 07:41:16;;;;;;;1.57;0.70;;;6.60;99.90;;;;;;5007929;28;20240;-26
2021/12/10 07:43:44;;;;;;;0.90;0.60;;;6.60;99.90;;;;;;5019640;28;20211;-26
2021/12/10 07:46:12;;;;;;;1.33;0.63;;;6.60;99.90;;;;;;5019759;28;20235;-26
2021/12/10 07:48:41;;;;;;;1.37;0.90;;;6.60;99.90;;;;;;5020781;28;20205;-26
2021/12/10 07:51:15;;;;;;;1.47;0.70;;;6.60;99.90;;;;;;5020002;28;20236;-26
2021/12/10 07:53:43;;;;;;;2.30;0.90;;;6.60;99.90;;;;;;5021386;28;20243;-26
2021/12/10 07:56:13;;;;;;;1.37;0.80;;;6.50;99.90;;;;;;5017826;28;20259;-26
2021/12/10 07:58:42;;;;;;;1.50;0.90;;;6.60;99.90;;;;;;5009172;28;20213;-26
2021/12/10 08:01:15;;;;;;;2.27;0.77;;;6.50;99.90;;;;;;5020650;28;20217;-26
2021/12/10 08:03:47;;;;;;;0.97;0.83;;;6.50;99.90;;;;;;5022630;28;20212;-26
2021/12/10 08:06:17;;;;;;;1.33;0.93;;;6.50;99.90;;;;;;5021873;28;20204;-26
2021/12/10 08:08:45;;;;;;;1.47;0.70;;;6.50;99.90;;;;;;5008510;28;20221;-26
2021/12/10 08:11:13;;;;;;;1.17;1.07;;;6.50;99.90;;;;;;5007556;28;20301;-26
2021/12/10 08:13:40;;;;;;;1.23;0.70;;;6.50;99.90;;;;;;5006414;28;20228;-26
2021/12/10 08:16:08;;;;;;;0.60;0.50;;;6.50;99.90;;;;;;5007565;28;20210;-26
2021/12/10 08:18:38;;;;;;;3.13;0.80;;;6.50;99.90;;;;;;5012934;28;20235;-26
2021/12/10 08:21:09;;;;;;;1.97;1.03;;;6.50;99.90;;;;;;5027024;28;20205;-26
2021/12/10 08:23:38;;;;;;;1.60;0.90;;;6.50;99.90;;;;;;5024649;28;20208;-26
2021/12/10 08:26:06;;;;;;;1.13;0.80;;;6.50;99.90;;;;;;5018685;28;20275;-26
2021/12/10 08:28:34;;;;;;;1.30;0.87;;;6.50;99.90;;;;;;5016730;28;20264;-26
2021/12/10 08:31:06;;;;;;;1.23;1.03;;;6.40;99.90;;;;;;5013669;28;20296;-26
2021/12/10 08:33:34;;;;;;;0.80;0.80;;;6.40;99.90;;;;;;5006406;28;20275;-26
2021/12/10 08:36:06;;;;;;;1.43;1.00;;;6.40;99.90;;;;;;5012880;28;20213;-25
2021/12/10 08:38:34;;;;;;;1.07;0.77;;;6.30;99.90;;;;;;5006794;28;20283;-26
2021/12/10 08:41:12;;;;;;;2.43;0.80;;;6.30;99.90;;;;;;5007607;28;20833;-26
2021/12/10 08:43:43;;;;;;;1.03;0.87;;;6.30;99.90;;;;;;5019359;28;20213;-26
2021/12/10 08:46:11;;;;;;;2.00;1.07;;;6.30;99.90;;;;;;5025361;28;20352;-26
2021/12/10 08:48:43;;;;;;;1.50;0.90;;;6.20;99.90;;;;;;5022951;28;20216;-26
2021/12/10 08:51:20;;;;;;;1.40;0.90;;;6.20;99.90;;;;;;5006030;28;20241;-26
2021/12/10 08:53:49;;;;;;;1.20;1.10;;;6.20;99.90;;;;;;5017636;28;20224;-26
2021/12/10 08:56:16;;;;;;;3.07;0.83;;;6.10;99.90;;;;;;5024494;28;20193;-26
2021/12/10 08:58:44;;;;;;;1.40;1.30;;;6.10;99.90;;;;;;5018497;28;20210;-26
2021/12/10 09:01:18;;;;;;;1.10;1.00;;;6.10;99.90;;;;;;5009516;28;20215;-26
2021/12/10 09:03:49;;;;;;;3.23;1.30;;;6.10;99.90;;;;;;5007258;28;20787;-26
2021/12/10 09:06:38;;;;;;;1.63;1.10;;;6.10;99.90;;;;;;5015035;28;20205;-26
2021/12/10 09:09:11;;;;;;;1.57;1.03;;;6.00;99.90;;;;;;5017890;28;20213;-26
2021/12/10 09:11:43;;;;;;;2.03;1.17;;;6.00;99.90;;;;;;5028820;28;20217;-26
2021/12/10 09:14:26;;;;;;;1.80;1.10;;;6.00;99.90;;;;;;5022165;28;20205;-26
2021/12/10 09:16:57;;;;;;;1.53;1.00;;;6.00;99.90;;;;;;5012341;28;20576;-26
2021/12/10 09:19:25;;;;;;;1.50;1.00;;;6.00;99.90;;;;;;5029718;28;20589;-26
2021/12/10 09:21:52;;;;;;;1.47;1.03;;;6.00;99.90;;;;;;5026684;28;20209;-26
2021/12/10 09:24:24;;;;;;;1.60;0.93;;;6.00;99.90;;;;;;5010524;28;20730;-25
2021/12/10 09:26:56;;;;;;;2.20;0.90;;;6.00;99.90;;;;;;5011156;28;20256;-26
2021/12/10 09:29:27;;;;;;;1.10;0.60;;;6.00;99.90;;;;;;5012873;28;20267;-26
2021/12/10 09:31:57;;;;;;;1.17;0.80;;;6.00;99.90;;;;;;5012084;28;20238;-26
2021/12/10 09:34:25;;;;;;;1.17;0.90;;;6.00;99.90;;;;;;5013888;28;20203;-26
2021/12/10 09:36:55;;;;;;;1.10;0.87;;;6.10;99.90;;;;;;5011874;28;20225;-26
2021/12/10 09:39:23;;;;;;;1.80;0.80;;;6.10;99.90;;;;;;5029062;28;20197;-26
2021/12/10 09:41:53;;;;;;;1.00;0.90;;;6.10;99.90;;;;;;5030058;28;20212;-26
2021/12/10 09:44:21;;;;;;;1.47;0.83;;;6.10;99.90;;;;;;5028253;28;20267;-25
2021/12/10 09:46:51;;;;;;;0.87;0.87;;;6.10;99.90;;;;;;5013956;28;20312;-26
2021/12/10 09:49:23;;;;;;;0.87;0.70;;;6.10;99.90;;;;;;5010707;28;20334;-26
2021/12/10 09:52:04;;;;;;;1.87;0.90;;;6.20;99.90;;;;;;5023105;28;20244;-26
2021/12/10 09:54:35;;;;;;;1.57;1.07;;;6.20;99.90;;;;;;5010880;28;20220;-25
2021/12/10 09:57:07;;;;;;;1.10;0.90;;;6.20;99.90;;;;;;5009884;28;20297;-26
2021/12/10 09:59:38;;;;;;;2.83;1.10;;;6.20;99.90;;;;;;5024919;28;20193;-26
2021/12/10 10:02:06;;;;;;;1.67;1.07;;;6.20;99.90;;;;;;5015205;28;20251;-26
2021/12/10 10:04:36;;;;;;;2.80;1.00;;;6.20;99.90;;;;;;5027233;28;20256;-26
2021/12/10 10:07:12;;;;;;;2.50;1.00;;;6.20;99.90;;;;;;5027700;28;20308;-26
2021/12/10 10:09:46;;;;;;;2.10;0.87;;;6.30;99.90;;;;;;5009922;28;20241;-26
2021/12/10 10:12:19;;;;;;;1.70;0.90;;;6.30;99.90;;;;;;5010633;28;20771;-26
2021/12/10 10:14:47;;;;;;;6.67;1.10;;;6.30;99.90;;;;;;5023421;28;20256;-26
2021/12/10 10:17:16;;;;;;;3.87;1.10;;;6.30;99.90;;;;;;5009261;28;20206;-26
2021/12/10 10:19:44;;;;;;;2.43;0.80;;;6.30;99.90;;;;;;5017902;28;20197;-26
2021/12/10 10:22:18;;;;;;;3.77;0.90;;;6.30;99.90;;;;;;5024336;28;20221;-26
2021/12/10 10:24:47;;;;;;;2.67;1.00;;;6.30;99.90;;;;;;5026932;28;20200;-26
2021/12/10 10:27:31;;;;;;;1.17;0.77;;;6.30;99.90;;;;;;5027186;28;20216;-26
2021/12/10 10:30:07;;;;;;;1.53;0.93;;;6.40;99.90;;;;;;5043802;28;20240;-26
2021/12/10 10:32:35;;;;;;;1.10;0.90;;;6.30;99.90;;;;;;5026103;28;20247;-26
2021/12/10 10:35:09;;;;;;;1.23;0.87;;;6.30;99.90;;;;;;5025981;28;20209;-26
2021/12/10 10:37:40;;;;;;;1.27;0.90;;;6.40;99.90;;;;;;5025554;28;20215;-26
2021/12/10 10:40:13;;;;;;;1.30;0.90;;;6.40;99.90;;;;;;5024275;28;20210;-26
2021/12/10 10:42:41;;;;;;;1.27;1.10;;;6.40;99.90;;;;;;5008796;28;20217;-26
2021/12/10 10:45:17;;;;;;;2.80;1.00;;;6.40;99.90;;;;;;5012061;28;20300;-26
2021/12/10 10:47:45;;;;;;;0.97;0.87;;;6.40;99.90;;;;;;5028167;28;20220;-26
2021/12/10 10:50:45;;;;;;;1.63;0.97;;;6.40;99.90;;;;;;5028459;28;20346;-26
2021/12/10 10:53:15;;;;;;;2.20;1.03;;;6.40;99.90;;;;;;5010816;28;20325;-26
2021/12/10 10:55:54;;;;;;;1.33;1.10;;;6.50;99.90;;;;;;5027121;28;20213;-26
2021/12/10 10:58:30;;;;;;;1.40;1.00;;;6.50;99.90;;;;;;5025064;28;20436;-26
2021/12/10 11:01:20;;;;;;;2.77;1.10;;;6.50;99.90;;;;;;5026106;28;20276;-26
2021/12/10 11:03:59;;;;;;;1.17;0.83;;;6.50;99.90;;;;;;5028425;28;20217;-25
2021/12/10 11:06:40;;;;;;;0.90;0.90;;;6.50;99.90;;;;;;5020239;28;20707;-26
2021/12/10 11:09:17;;;;;;;0.60;0.60;;;6.50;99.90;;;;;;5028258;28;20219;-26
2021/12/10 11:11:56;;;;;;;1.63;0.70;;;6.50;99.90;;;;;;5028095;28;20203;-25
2021/12/10 11:14:42;;;;;;;2.07;0.70;;;6.60;99.90;;;;;;5021983;28;20252;-26
2021/12/10 11:17:27;;;;;;;0.97;0.87;;;6.50;99.90;;;;;;5008191;28;20236;-26
2021/12/10 11:20:00;;;;;;;1.07;0.87;;;6.60;99.90;;;;;;5016357;28;20712;-26
2021/12/10 11:22:31;;;;;;;0.80;0.80;;;6.50;99.90;;;;;;5006606;28;20660;-26
2021/12/10 11:25:06;;;;;;;0.87;0.70;;;6.50;99.90;;;;;;5011483;28;20240;-26
2021/12/10 11:27:36;;;;;;;0.70;0.70;;;6.50;99.90;;;;;;5020238;28;20201;-26
2021/12/10 11:30:09;;;;;;;1.13;0.87;;;6.60;99.90;;;;;;5008476;28;20218;-26
2021/12/10 11:32:42;;;;;;;0.83;0.80;;;6.60;99.90;;;;;;5013047;28;20240;-26
2021/12/10 11:35:20;;;;;;;1.63;1.10;;;6.60;99.90;;;;;;5020838;28;20201;-26
2021/12/10 11:37:55;;;;;;;1.93;1.00;;;6.60;99.90;;;;;;5029825;28;20230;-26
2021/12/10 11:40:40;;;;;;;1.93;1.13;;;6.60;99.90;;;;;;5019314;28;20201;-26
2021/12/10 11:48:40;;;;;;;1.43;0.97;;;6.60;99.90;;;;;;5010834;28;20221;-26
2021/12/10 11:51:19;;;;;;;1.60;1.10;;;6.60;99.90;;;;;;5008956;28;20327;-26
2021/12/10 11:53:52;;;;;;;1.80;1.50;;;6.60;99.90;;;;;;5011796;28;20252;-26
2021/12/10 11:56:26;;;;;;;4.53;1.47;;;6.60;99.90;;;;;;5014843;28;20204;-26
2021/12/10 11:59:15;;;;;;;2.23;1.20;;;6.70;99.90;;;;;;5026922;28;20299;-26
2021/12/10 12:02:06;;;;;;;3.17;1.40;;;6.70;99.90;;;;;;5013868;28;20641;-26
2021/12/10 12:04:51;;;;;;;2.27;1.60;;;6.70;99.90;;;;;;5013141;28;20197;-26
2021/12/10 12:07:21;;;;;;;1.13;1.00;;;6.70;99.90;;;;;;5010986;28;20266;-26
2021/12/10 12:10:04;;;;;;;2.47;1.10;;;6.70;99.90;;;;;;5016376;28;20559;-26
2021/12/10 12:12:42;;;;;;;1.53;1.20;;;6.70;99.90;;;;;;5022805;28;20241;-26
2021/12/10 12:15:28;;;;;;;1.23;1.10;;;6.70;99.90;;;;;;5012924;28;20326;-26
2021/12/10 12:18:01;;;;;;;2.30;1.20;;;6.70;99.90;;;;;;5013128;28;20262;-26
2021/12/10 12:27:05;;;;;;;1.57;1.00;;;6.70;99.90;;;;;;5024420;28;20201;-26
2021/12/10 12:30:04;;;;;;;1.20;0.90;;;6.70;99.90;;;;;;5013826;28;20634;-26
2021/12/10 12:32:43;;;;;;;1.37;1.10;;;6.70;99.90;;;;;;5017308;28;20705;-26
2021/12/10 12:35:13;;;;;;;2.80;1.23;;;6.60;99.90;;;;;;5021722;28;20788;-26
2021/12/10 12:37:41;;;;;;;1.33;1.10;;;6.60;99.90;;;;;;5012422;28;20679;-26
2021/12/10 12:40:28;;;;;;;1.37;1.27;;;6.70;99.90;;;;;;5010235;28;20209;-26
2021/12/10 12:43:04;;;;;;;1.53;1.20;;;6.70;99.90;;;;;;5020466;28;20229;-26
2021/12/10 12:45:36;;;;;;;2.30;1.70;;;6.70;99.90;;;;;;5012217;28;20207;-26
2021/12/10 12:48:23;;;;;;;6.17;1.57;;;6.60;99.90;;;;;;5015114;28;20566;-26
2021/12/10 12:50:51;;;;;;;3.10;1.40;;;6.60;99.90;;;;;;5019217;28;20241;-26
2021/12/10 12:53:29;;;;;;;1.50;1.37;;;6.60;99.90;;;;;;5010153;28;20232;-26
2021/12/10 12:56:00;;;;;;;1.80;1.50;;;6.60;99.90;;;;;;5017227;28;20212;-26
2021/12/10 12:59:04;;;;;;;3.70;1.60;;;6.60;99.90;;;;;;5016835;28;20275;-25
2021/12/10 13:01:41;;;;;;;2.87;2.57;;;6.60;99.90;;;;;;5030441;28;20189;-26
2021/12/10 13:04:14;;;;;;;5.50;3.73;;;6.50;99.90;;;;;;5023817;28;20225;-26
2021/12/10 13:07:14;;;;;;;5.27;3.83;;;6.40;99.90;;;;;;5026414;28;20658;-26
2021/12/10 13:09:54;;;;;;;4.47;3.50;;;6.40;99.90;;;;;;5028945;28;20325;-26
2021/12/10 13:15:06;;;;;;;4.07;3.60;;;6.30;99.90;;;;;;5026234;28;20201;-25
2021/12/10 13:17:40;;;;;;;4.30;3.90;;;6.20;99.90;;;;;;5023569;28;20611;-26
2021/12/10 13:20:27;;;;;;;4.37;3.50;;;6.20;99.90;;;;;;5010202;28;20256;-25
2021/12/10 13:23:01;;;;;;;4.10;3.70;;;6.10;99.90;;;;;;5009278;28;20210;-26
2021/12/10 13:25:31;;;;;;;4.00;3.63;;;6.10;99.90;;;;;;5021489;28;20255;-25
2021/12/10 13:28:00;;;;;;;4.50;4.10;;;6.00;99.90;;;;;;5018848;28;20194;-26
2021/12/10 13:30:34;;;;;;;4.43;3.90;;;6.00;99.90;;;;;;5015119;28;20236;-26
2021/12/10 13:33:03;;;;;;;5.20;4.70;;;5.90;99.90;;;;;;5023442;28;20232;-25
2021/12/10 13:35:33;;;;;;;4.60;4.20;;;6.00;99.90;;;;;;5020777;28;20284;-25
2021/12/10 13:38:02;;;;;;;5.10;4.70;;;5.90;99.90;;;;;;5017426;28;20216;-25
2021/12/10 13:40:34;;;;;;;7.30;5.20;;;5.90;99.90;;;;;;5041010;28;20304;-26
2021/12/10 13:43:06;;;;;;;6.37;5.77;;;5.90;99.90;;;;;;5002863;28;20209;-26
2021/12/10 13:45:37;;;;;;;6.77;6.17;;;5.90;99.90;;;;;;5010056;28;20225;-26
2021/12/10 13:48:12;;;;;;;7.03;6.33;;;5.80;99.90;;;;;;5016691;28;20291;-25